createdAt,value
2019-01-31T00:00:26.399Z,100935.05
2019-01-31T00:01:31.633Z,100941.56
2019-01-31T00:02:48.659Z,100940.86
2019-01-31T00:03:53.372Z,100941.72
2019-01-31T00:05:00.910Z,100937.36
2019-01-31T00:06:20.520Z,100943.41
2019-01-31T00:07:30.986Z,100938.89
2019-01-31T00:08:45.562Z,100943.41
2019-01-31T00:09:57.524Z,100937.09
2019-01-31T00:11:02.357Z,100935.40
2019-01-31T00:12:13.124Z,100945.09
2019-01-31T00:13:23.708Z,100948.63
2019-01-31T00:14:37.724Z,100952.13
2019-01-31T00:15:42.443Z,100952.63
2019-01-31T00:16:47.172Z,100959.15
2019-01-31T00:18:10.224Z,100960.99
2019-01-31T00:19:30.132Z,100951.77
2019-01-31T00:20:40.691Z,100955.77
2019-01-31T00:22:00.520Z,100957.97
2019-01-31T00:23:29.576Z,100958.91
2019-01-31T00:24:37.024Z,100954.91
2019-01-31T00:26:14.306Z,100956.75
2019-01-31T00:27:19.064Z,100955.05
2019-01-31T00:28:42.284Z,100954.34
2019-01-31T00:29:47.101Z,100950.34
2019-01-31T00:31:11.820Z,100950.94
2019-01-31T00:32:16.549Z,100950.78
2019-01-31T00:33:39.104Z,100954.08
2019-01-31T00:34:59.039Z,100943.91
2019-01-31T00:36:06.476Z,100945.71
2019-01-31T00:37:14.080Z,100949.36
2019-01-31T00:38:34.072Z,100946.22
2019-01-31T00:39:47.913Z,100943.19
2019-01-31T00:40:58.385Z,100943.19
2019-01-31T00:42:18.260Z,100947.20
2019-01-31T00:43:39.653Z,100945.00
2019-01-31T00:44:50.409Z,100944.17
2019-01-31T00:46:10.416Z,100941.14
2019-01-31T00:47:21.162Z,100944.17
2019-01-31T00:48:31.632Z,100947.81
2019-01-31T00:49:45.417Z,100939.81
2019-01-31T00:50:59.181Z,100942.13
2019-01-31T00:52:07.228Z,100950.95
2019-01-31T00:53:21.318Z,100944.28
2019-01-31T00:54:34.759Z,100945.15
2019-01-31T00:55:45.436Z,100947.31
2019-01-31T00:57:02.476Z,100951.82
2019-01-31T00:58:19.256Z,100946.84
2019-01-31T00:59:23.972Z,100955.20
2019-01-31T01:00:34.540Z,100947.67
2019-01-31T01:01:47.809Z,100951.20
2019-01-31T01:03:13.444Z,100957.36
2019-01-31T01:04:27.171Z,100953.51
2019-01-31T01:06:08.491Z,100957.87
2019-01-31T01:07:19.175Z,100957.52
2019-01-31T01:08:28.524Z,100961.52
2019-01-31T01:09:36.128Z,100962.48
2019-01-31T01:11:00.548Z,100963.11
2019-01-31T01:12:19.946Z,100972.30
2019-01-31T01:13:33.783Z,100974.61
2019-01-31T01:15:03.023Z,100964.92
2019-01-31T01:16:10.669Z,100969.42
2019-01-31T01:17:33.501Z,100969.42
2019-01-31T01:18:41.260Z,100965.54
2019-01-31T01:20:03.892Z,100967.73
2019-01-31T01:21:17.610Z,100967.73
2019-01-31T01:22:34.659Z,100962.66
2019-01-31T01:23:44.689Z,100961.69
2019-01-31T01:25:06.077Z,100961.69
2019-01-31T01:26:13.898Z,100962.30
2019-01-31T01:27:27.445Z,100963.99
2019-01-31T01:28:35.309Z,100960.97
2019-01-31T01:29:40.035Z,100958.30
2019-01-31T01:30:50.424Z,100959.64
2019-01-31T01:32:04.273Z,100962.30
2019-01-31T01:33:11.744Z,100961.69
2019-01-31T01:34:16.462Z,100964.70
2019-01-31T01:35:27.108Z,100954.66
2019-01-31T01:36:34.944Z,100962.52
2019-01-31T01:37:45.925Z,100957.17
2019-01-31T01:39:18.682Z,100958.39
2019-01-31T01:40:44.397Z,100960.70
2019-01-31T01:41:55.387Z,100961.06
2019-01-31T01:43:00.112Z,100965.06
2019-01-31T01:44:17.200Z,100964.09
2019-01-31T01:45:49.232Z,100956.70
2019-01-31T01:46:54.056Z,100961.89
2019-01-31T01:48:01.694Z,100961.53
2019-01-31T01:49:12.109Z,100964.70
2019-01-31T01:50:25.788Z,100961.53
2019-01-31T01:51:51.509Z,100958.87
2019-01-31T01:53:13.844Z,100967.38
2019-01-31T01:54:24.740Z,100963.73
2019-01-31T01:55:41.455Z,100966.88
2019-01-31T01:56:49.173Z,100966.05
2019-01-31T01:58:10.908Z,100958.52
2019-01-31T01:59:18.299Z,100968.71
2019-01-31T02:00:35.352Z,100961.18
2019-01-31T02:01:42.878Z,100965.06
2019-01-31T02:02:50.245Z,100954.03
2019-01-31T02:04:01.234Z,100959.84
2019-01-31T02:05:40.844Z,100959.37
2019-01-31T02:06:54.788Z,100958.04
2019-01-31T02:08:14.456Z,100957.53
2019-01-31T02:09:33.782Z,100959.02
2019-01-31T02:11:04.603Z,100963.38
2019-01-31T02:12:15.178Z,100965.33
2019-01-31T02:13:35.328Z,100957.80
2019-01-31T02:15:00.051Z,100953.44
2019-01-31T02:16:07.818Z,100960.11
2019-01-31T02:17:31.857Z,100959.75
2019-01-31T02:18:45.489Z,100958.92
2019-01-31T02:20:01.922Z,100962.06
2019-01-31T02:21:25.043Z,100954.17
2019-01-31T02:22:38.866Z,100951.51
2019-01-31T02:23:43.581Z,100956.38
2019-01-31T02:24:48.345Z,100956.48
2019-01-31T02:25:56.100Z,100956.13
2019-01-31T02:27:17.447Z,100954.33
2019-01-31T02:28:34.410Z,100956.99
2019-01-31T02:29:57.002Z,100957.81
2019-01-31T02:31:01.825Z,100960.48
2019-01-31T02:32:39.996Z,100964.02
2019-01-31T02:33:56.799Z,100962.33
2019-01-31T02:35:19.625Z,100958.80
2019-01-31T02:36:47.156Z,100958.80
2019-01-31T02:38:09.624Z,100959.41
2019-01-31T02:39:42.342Z,100960.39
2019-01-31T02:40:43.862Z,100964.90
2019-01-31T02:41:51.325Z,100964.03
2019-01-31T02:43:02.185Z,100951.68
2019-01-31T02:44:15.776Z,100961.88
2019-01-31T02:45:35.659Z,100963.68
2019-01-31T02:46:49.799Z,100969.02
2019-01-31T02:47:54.514Z,100966.23
2019-01-31T02:49:02.387Z,100968.04
2019-01-31T02:50:42.244Z,100969.73
2019-01-31T02:51:55.730Z,100962.70
2019-01-31T02:53:06.495Z,100956.89
2019-01-31T02:54:29.440Z,100963.06
2019-01-31T02:55:46.234Z,100968.90
2019-01-31T02:56:59.989Z,100965.02
2019-01-31T02:58:07.859Z,100970.34
2019-01-31T02:59:35.550Z,100963.83
2019-01-31T03:00:46.266Z,100965.63
2019-01-31T03:01:59.802Z,100964.30
2019-01-31T03:03:25.578Z,100964.80
2019-01-31T03:04:36.184Z,100963.94
2019-01-31T03:06:02.779Z,100961.27
2019-01-31T03:07:37.953Z,100958.61
2019-01-31T03:08:42.678Z,100962.14
2019-01-31T03:10:08.905Z,100963.94
2019-01-31T03:11:31.253Z,100966.61
2019-01-31T03:12:35.979Z,100970.25
2019-01-31T03:13:52.650Z,100967.58
2019-01-31T03:14:57.362Z,100967.73
2019-01-31T03:16:05.104Z,100971.23
2019-01-31T03:17:21.647Z,100973.06
2019-01-31T03:18:35.824Z,100971.23
2019-01-31T03:19:46.720Z,100971.23
2019-01-31T03:21:09.592Z,100969.89
2019-01-31T03:22:49.662Z,100969.89
2019-01-31T03:24:28.289Z,100973.06
2019-01-31T03:25:51.376Z,100974.52
2019-01-31T03:27:12.871Z,100975.99
2019-01-31T03:28:17.581Z,100979.64
2019-01-31T03:29:43.947Z,100976.25
2019-01-31T03:30:57.662Z,100973.23
2019-01-31T03:32:26.562Z,100979.03
2019-01-31T03:34:00.417Z,100976.73
2019-01-31T03:35:10.879Z,100973.08
2019-01-31T03:36:41.180Z,100967.89
2019-01-31T03:38:03.803Z,100977.23
2019-01-31T03:39:25.322Z,100970.41
2019-01-31T03:40:36.228Z,100975.03
2019-01-31T03:41:56.040Z,100976.73
2019-01-31T03:43:12.696Z,100980.72
2019-01-31T03:44:32.083Z,100978.05
2019-01-31T03:46:02.762Z,100980.37
2019-01-31T03:47:33.292Z,100980.72
2019-01-31T03:48:50.341Z,100982.92
2019-01-31T03:50:00.832Z,100981.70
2019-01-31T03:51:08.267Z,100979.50
2019-01-31T03:52:32.952Z,100981.70
2019-01-31T03:53:40.725Z,100988.72
2019-01-31T03:54:57.688Z,100991.03
2019-01-31T03:56:33.459Z,100993.70
2019-01-31T03:57:53.208Z,100989.23
2019-01-31T03:59:00.626Z,100987.03
2019-01-31T04:00:09.248Z,100991.03
2019-01-31T04:01:16.732Z,100987.39
2019-01-31T04:02:33.575Z,100991.39
2019-01-31T04:04:01.341Z,100991.28
2019-01-31T04:05:21.324Z,100990.77
2019-01-31T04:06:22.635Z,100990.77
2019-01-31T04:07:23.744Z,100986.77
2019-01-31T04:08:24.872Z,100988.11
2019-01-31T04:09:25.998Z,100989.80
2019-01-31T04:10:27.105Z,100993.33
2019-01-31T04:11:28.219Z,100991.48
2019-01-31T04:12:29.341Z,100993.18
2019-01-31T04:13:30.500Z,101000.56
2019-01-31T04:14:31.631Z,100995.59
2019-01-31T04:15:32.852Z,100990.61
2019-01-31T04:16:33.979Z,100997.64
2019-01-31T04:17:35.204Z,100995.69
2019-01-31T04:18:36.352Z,101000.91
2019-01-31T04:19:37.473Z,100996.41
2019-01-31T04:20:38.684Z,100997.73
2019-01-31T04:21:39.799Z,100998.09
2019-01-31T04:22:40.930Z,100996.29
2019-01-31T04:23:42.060Z,100998.95
2019-01-31T04:24:43.179Z,100999.78
2019-01-31T04:25:44.400Z,100998.45
2019-01-31T04:26:45.513Z,100999.31
2019-01-31T04:27:46.627Z,100999.78
2019-01-31T04:28:47.752Z,100998.81
2019-01-31T04:29:48.873Z,101000.14
2019-01-31T04:30:50.025Z,101005.00
2019-01-31T04:31:51.125Z,101005.84
2019-01-31T04:32:52.263Z,101008.03
2019-01-31T04:33:53.638Z,101006.70
2019-01-31T04:34:54.752Z,101008.39
2019-01-31T04:35:55.870Z,101007.05
2019-01-31T04:36:56.983Z,101011.89
2019-01-31T04:37:58.097Z,101009.11
2019-01-31T04:38:59.261Z,101010.95
2019-01-31T04:40:00.465Z,101007.30
2019-01-31T04:41:01.582Z,101012.63
2019-01-31T04:42:03.096Z,101011.30
2019-01-31T04:43:04.328Z,101009.46
2019-01-31T04:44:05.774Z,101015.66
2019-01-31T04:45:08.489Z,101015.30
2019-01-31T04:46:09.599Z,101016.64
2019-01-31T04:47:10.712Z,101017.97
2019-01-31T04:48:11.824Z,101013.97
2019-01-31T04:49:12.970Z,101021.83
2019-01-31T04:50:14.182Z,101015.66
2019-01-31T04:51:15.409Z,101019.66
2019-01-31T04:52:16.659Z,101024.13
2019-01-31T04:53:17.868Z,101023.30
2019-01-31T04:54:19.127Z,101021.97
2019-01-31T04:55:20.344Z,101029.97
2019-01-31T04:56:21.457Z,101027.31
2019-01-31T04:57:22.567Z,101028.13
2019-01-31T04:58:23.787Z,101032.02
2019-01-31T04:59:25.126Z,101032.50
2019-01-31T05:00:26.316Z,101032.14
2019-01-31T05:01:27.527Z,101030.80
2019-01-31T05:02:28.640Z,101038.80
2019-01-31T05:03:29.752Z,101032.64
2019-01-31T05:04:30.910Z,101032.64
2019-01-31T05:05:32.026Z,101037.00
2019-01-31T05:06:33.137Z,101041.36
2019-01-31T05:07:34.255Z,101037.00
2019-01-31T05:08:35.369Z,101038.34
2019-01-31T05:09:36.651Z,101039.16
2019-01-31T05:10:43.298Z,101039.31
2019-01-31T05:11:40.787Z,101032.64
2019-01-31T05:12:41.897Z,101032.64
2019-01-31T05:13:43.011Z,101037.47
2019-01-31T05:14:44.141Z,101033.62
2019-01-31T05:15:45.250Z,101034.95
2019-01-31T05:16:46.381Z,101035.89
2019-01-31T05:17:47.506Z,101035.89
2019-01-31T05:18:48.616Z,101037.23
2019-01-31T05:19:49.744Z,101041.23
2019-01-31T05:20:50.856Z,101038.56
2019-01-31T05:21:51.981Z,101039.06
2019-01-31T05:22:53.107Z,101039.54
2019-01-31T05:23:54.330Z,101038.20
2019-01-31T05:24:55.464Z,101043.90
2019-01-31T05:25:56.579Z,101047.54
2019-01-31T05:26:57.693Z,101042.20
2019-01-31T05:27:58.812Z,101045.38
2019-01-31T05:28:59.932Z,101047.19
2019-01-31T05:30:01.158Z,101046.35
2019-01-31T05:31:02.974Z,101049.49
2019-01-31T05:32:04.080Z,101052.16
2019-01-31T05:33:05.193Z,101055.69
2019-01-31T05:34:06.306Z,101057.50
2019-01-31T05:35:09.038Z,101056.16
2019-01-31T05:36:10.391Z,101057.64
2019-01-31T05:37:11.500Z,101057.14
2019-01-31T05:38:12.717Z,101054.11
2019-01-31T05:39:13.829Z,101060.31
2019-01-31T05:40:15.084Z,101056.30
2019-01-31T05:41:16.206Z,101060.78
2019-01-31T05:42:17.321Z,101057.75
2019-01-31T05:43:18.436Z,101054.61
2019-01-31T05:44:19.557Z,101055.08
2019-01-31T05:45:20.681Z,101054.97
2019-01-31T05:46:21.792Z,101052.30
2019-01-31T05:47:22.908Z,101059.09
2019-01-31T05:48:24.026Z,101055.59
2019-01-31T05:49:25.150Z,101060.42
2019-01-31T05:50:26.275Z,101059.95
2019-01-31T05:51:27.424Z,101058.73
2019-01-31T05:52:28.578Z,101057.90
2019-01-31T05:53:29.692Z,101063.70
2019-01-31T05:54:30.806Z,101062.73
2019-01-31T05:55:31.936Z,101067.34
2019-01-31T05:56:33.048Z,101060.31
2019-01-31T05:57:34.164Z,101062.27
2019-01-31T05:58:35.289Z,101060.46
2019-01-31T05:59:36.407Z,101058.27
2019-01-31T06:00:37.638Z,101059.23
2019-01-31T06:01:38.756Z,101066.88
2019-01-31T06:02:39.870Z,101068.36
2019-01-31T06:03:40.982Z,101065.81
2019-01-31T06:04:42.094Z,101065.81
2019-01-31T06:05:43.239Z,101063.75
2019-01-31T06:06:44.479Z,101067.28
2019-01-31T06:07:45.587Z,101070.42
2019-01-31T06:08:46.705Z,101068.73
2019-01-31T06:09:47.823Z,101071.75
2019-01-31T06:10:48.953Z,101066.92
2019-01-31T06:11:50.173Z,101075.14
2019-01-31T06:12:51.285Z,101070.16
2019-01-31T06:13:52.399Z,101072.83
2019-01-31T06:14:53.518Z,101077.91
2019-01-31T06:15:54.690Z,101069.30
2019-01-31T06:16:55.920Z,101064.20
2019-01-31T06:17:57.045Z,101072.42
2019-01-31T06:18:58.157Z,101076.53
2019-01-31T06:19:59.268Z,101077.13
2019-01-31T06:21:00.428Z,101076.77
2019-01-31T06:22:01.542Z,101073.83
2019-01-31T06:23:03.264Z,101072.24
2019-01-31T06:24:04.377Z,101067.83
2019-01-31T06:25:05.590Z,101069.54
2019-01-31T06:26:06.741Z,101072.30
2019-01-31T06:27:07.851Z,101070.09
2019-01-31T06:28:09.075Z,101073.22
2019-01-31T06:29:10.197Z,101072.33
2019-01-31T06:30:15.967Z,101073.28
2019-01-31T06:31:17.211Z,101078.96
2019-01-31T06:32:18.326Z,101073.20
2019-01-31T06:33:19.441Z,101081.20
2019-01-31T06:34:20.553Z,101074.97
2019-01-31T06:35:21.665Z,101083.78
2019-01-31T06:36:22.789Z,101077.43
2019-01-31T06:37:23.902Z,101078.34
2019-01-31T06:38:25.016Z,101079.66
2019-01-31T06:39:26.127Z,101080.95
2019-01-31T06:40:27.244Z,101074.72
2019-01-31T06:41:28.413Z,101075.04
2019-01-31T06:42:29.517Z,101080.82
2019-01-31T06:43:30.629Z,101079.45
2019-01-31T06:44:31.743Z,101083.89
2019-01-31T06:45:32.967Z,101078.63
2019-01-31T06:46:34.096Z,101081.42
2019-01-31T06:47:35.207Z,101084.17
2019-01-31T06:48:36.322Z,101085.08
2019-01-31T06:49:37.431Z,101086.14
2019-01-31T06:50:38.545Z,101084.87
2019-01-31T06:51:39.672Z,101085.95
2019-01-31T06:52:40.790Z,101086.05
2019-01-31T06:53:41.904Z,101083.58
2019-01-31T06:54:43.016Z,101087.19
2019-01-31T06:55:44.124Z,101091.05
2019-01-31T06:56:45.276Z,101092.11
2019-01-31T06:57:46.486Z,101088.33
2019-01-31T06:58:47.604Z,101097.89
2019-01-31T06:59:48.731Z,101094.61
2019-01-31T07:00:49.844Z,101090.31
2019-01-31T07:01:50.965Z,101097.20
2019-01-31T07:02:52.073Z,101093.06
2019-01-31T07:03:53.180Z,101088.90
2019-01-31T07:04:54.295Z,101095.11
2019-01-31T07:05:55.404Z,101094.83
2019-01-31T07:06:56.598Z,101101.01
2019-01-31T07:07:57.714Z,101094.20
2019-01-31T07:08:59.282Z,101093.69
2019-01-31T07:10:00.401Z,101097.58
2019-01-31T07:11:01.506Z,101101.95
2019-01-31T07:12:02.830Z,101103.28
2019-01-31T07:13:03.944Z,101107.65
2019-01-31T07:14:05.155Z,101109.81
2019-01-31T07:15:08.764Z,101113.70
2019-01-31T07:16:09.876Z,101117.24
2019-01-31T07:17:11.151Z,101107.87
2019-01-31T07:18:12.274Z,101117.24
2019-01-31T07:19:13.392Z,101120.75
2019-01-31T07:20:16.104Z,101116.38
2019-01-31T07:21:17.220Z,101119.06
2019-01-31T07:22:18.658Z,101124.41
2019-01-31T07:23:19.873Z,101122.72
2019-01-31T07:24:21.092Z,101123.35
2019-01-31T07:25:23.405Z,101125.04
2019-01-31T07:26:24.520Z,101125.04
2019-01-31T07:27:25.650Z,101122.48
2019-01-31T07:28:26.864Z,101126.03
2019-01-31T07:29:27.980Z,101120.67
2019-01-31T07:30:29.210Z,101126.38
2019-01-31T07:31:30.322Z,101126.38
2019-01-31T07:32:31.452Z,101127.72
2019-01-31T07:33:32.668Z,101125.04
2019-01-31T07:34:33.786Z,101127.72
2019-01-31T07:35:34.900Z,101129.05
2019-01-31T07:36:36.008Z,101129.05
2019-01-31T07:37:37.132Z,101129.89
2019-01-31T07:38:38.245Z,101128.70
2019-01-31T07:39:39.355Z,101129.53
2019-01-31T07:40:40.468Z,101126.03
2019-01-31T07:41:41.830Z,101131.38
2019-01-31T07:42:43.132Z,101131.86
2019-01-31T07:43:46.790Z,101126.50
2019-01-31T07:44:47.261Z,101124.34
2019-01-31T07:45:48.379Z,101128.00
2019-01-31T07:46:49.490Z,101134.33
2019-01-31T07:47:50.609Z,101126.66
2019-01-31T07:48:51.721Z,101137.36
2019-01-31T07:49:52.828Z,101140.52
2019-01-31T07:50:53.946Z,101143.70
2019-01-31T07:51:55.420Z,101139.33
2019-01-31T07:52:56.751Z,101153.54
2019-01-31T07:53:57.874Z,101140.80
2019-01-31T07:55:01.858Z,101147.48
2019-01-31T07:56:02.005Z,101141.77
2019-01-31T07:57:03.216Z,101145.08
2019-01-31T07:58:04.348Z,101148.63
2019-01-31T07:59:05.459Z,101150.94
2019-01-31T08:00:13.086Z,101154.25
2019-01-31T08:01:14.200Z,101151.57
2019-01-31T08:02:15.313Z,101156.22
2019-01-31T08:03:16.437Z,101144.30
2019-01-31T08:04:17.657Z,101155.51
2019-01-31T08:05:20.678Z,101153.19
2019-01-31T08:06:21.785Z,101152.33
2019-01-31T08:07:23.005Z,101158.54
2019-01-31T08:08:24.429Z,101155.00
2019-01-31T08:09:25.542Z,101160.50
2019-01-31T08:10:35.627Z,101156.49
2019-01-31T08:11:36.740Z,101160.50
2019-01-31T08:12:37.856Z,101164.99
2019-01-31T08:13:38.989Z,101163.30
2019-01-31T08:14:40.105Z,101162.47
2019-01-31T08:15:41.216Z,101168.66
2019-01-31T08:16:42.334Z,101163.81
2019-01-31T08:17:47.288Z,101163.30
2019-01-31T08:18:48.420Z,101165.14
2019-01-31T08:19:49.538Z,101167.31
2019-01-31T08:20:50.649Z,101164.28
2019-01-31T08:21:51.766Z,101169.64
2019-01-31T08:22:52.876Z,101167.82
2019-01-31T08:23:54.011Z,101169.16
2019-01-31T08:24:55.123Z,101167.82
2019-01-31T08:25:56.239Z,101182.53
2019-01-31T08:26:57.361Z,101177.54
2019-01-31T08:27:58.569Z,101176.20
2019-01-31T08:28:59.701Z,101188.24
2019-01-31T08:30:00.812Z,101190.05
2019-01-31T08:31:02.119Z,101186.67
2019-01-31T08:32:03.333Z,101189.34
2019-01-31T08:33:04.540Z,101191.66
2019-01-31T08:34:05.668Z,101194.34
2019-01-31T08:35:07.284Z,101198.47
2019-01-31T08:36:08.394Z,101194.97
2019-01-31T08:37:09.508Z,101194.61
2019-01-31T08:38:10.621Z,101197.29
2019-01-31T08:39:11.768Z,101199.61
2019-01-31T08:40:13.175Z,101193.91
2019-01-31T08:41:14.287Z,101198.74
2019-01-31T08:42:15.718Z,101190.72
2019-01-31T08:43:16.827Z,101197.91
2019-01-31T08:44:17.956Z,101199.73
2019-01-31T08:45:19.169Z,101200.23
2019-01-31T08:46:20.285Z,101196.70
2019-01-31T08:47:21.396Z,101202.55
2019-01-31T08:48:22.718Z,101204.37
2019-01-31T08:49:23.870Z,101204.72
2019-01-31T08:50:29.220Z,101209.24
2019-01-31T08:51:30.331Z,101206.56
2019-01-31T08:52:31.442Z,101207.39
2019-01-31T08:53:32.662Z,101211.56
2019-01-31T08:54:33.774Z,101206.69
2019-01-31T08:55:34.880Z,101211.68
2019-01-31T08:56:35.990Z,101213.02
2019-01-31T08:57:37.104Z,101213.02
2019-01-31T08:58:38.218Z,101215.69
2019-01-31T08:59:39.360Z,101215.34
2019-01-31T09:00:40.476Z,101215.34
2019-01-31T09:01:41.588Z,101213.64
2019-01-31T09:02:42.804Z,101222.02
2019-01-31T09:03:43.925Z,101215.34
2019-01-31T09:04:45.073Z,101220.33
2019-01-31T09:05:46.203Z,101218.16
2019-01-31T09:06:47.319Z,101216.47
2019-01-31T09:07:48.524Z,101228.98
2019-01-31T09:08:49.640Z,101227.17
2019-01-31T09:09:50.783Z,101228.98
2019-01-31T09:10:51.897Z,101232.64
2019-01-31T09:11:53.005Z,101229.60
2019-01-31T09:12:54.411Z,101235.66
2019-01-31T09:13:55.525Z,101232.16
2019-01-31T09:14:56.661Z,101240.19
2019-01-31T09:15:57.775Z,101229.13
2019-01-31T09:16:58.894Z,101237.63
2019-01-31T09:18:00.040Z,101232.28
2019-01-31T09:19:03.984Z,101238.84
2019-01-31T09:20:07.847Z,101230.82
2019-01-31T09:21:18.490Z,101236.64
2019-01-31T09:22:23.004Z,101235.31
2019-01-31T09:23:36.202Z,101232.98
2019-01-31T09:24:41.606Z,101237.98
2019-01-31T09:25:55.580Z,101234.84
2019-01-31T09:27:06.121Z,101236.64
2019-01-31T09:28:26.084Z,101234.48
2019-01-31T09:29:34.084Z,101239.32
2019-01-31T09:31:00.012Z,101238.13
2019-01-31T09:32:10.471Z,101241.64
2019-01-31T09:33:33.489Z,101240.45
2019-01-31T09:34:53.239Z,101232.08
2019-01-31T09:36:01.071Z,101232.19
2019-01-31T09:37:17.228Z,101231.84
2019-01-31T09:38:46.154Z,101231.13
2019-01-31T09:39:53.618Z,101234.42
2019-01-31T09:41:10.577Z,101234.19
2019-01-31T09:42:26.101Z,101229.34
2019-01-31T09:43:52.200Z,101228.12
2019-01-31T09:45:05.949Z,101231.30
2019-01-31T09:46:20.035Z,101230.95
2019-01-31T09:47:36.491Z,101230.59
2019-01-31T09:48:41.204Z,101227.56
2019-01-31T09:50:00.553Z,101229.25
2019-01-31T09:51:31.339Z,101219.55
2019-01-31T09:52:54.590Z,101221.70
2019-01-31T09:54:14.843Z,101225.36
2019-01-31T09:55:19.560Z,101231.22
2019-01-31T09:56:30.355Z,101224.53
2019-01-31T09:57:41.116Z,101230.35
2019-01-31T09:59:19.401Z,101231.22
2019-01-31T10:00:42.584Z,101232.20
2019-01-31T10:02:08.608Z,101237.90
2019-01-31T10:03:25.749Z,101230.97
2019-01-31T10:04:36.530Z,101234.16
2019-01-31T10:05:46.851Z,101231.59
2019-01-31T10:07:19.190Z,101233.44
2019-01-31T10:08:52.513Z,101232.58
2019-01-31T10:10:12.422Z,101233.09
2019-01-31T10:11:33.890Z,101230.41
2019-01-31T10:12:55.270Z,101232.70
2019-01-31T10:14:08.739Z,101236.34
2019-01-31T10:15:19.415Z,101237.33
2019-01-31T10:16:36.214Z,101235.63
2019-01-31T10:17:43.962Z,101234.66
2019-01-31T10:19:23.266Z,101238.67
2019-01-31T10:20:46.379Z,101230.64
2019-01-31T10:21:56.921Z,101235.99
2019-01-31T10:23:10.948Z,101237.33
2019-01-31T10:24:33.919Z,101229.31
2019-01-31T10:25:47.828Z,101235.52
2019-01-31T10:27:04.492Z,101243.03
2019-01-31T10:28:09.208Z,101248.38
2019-01-31T10:29:16.960Z,101246.06
2019-01-31T10:30:27.866Z,101249.12
2019-01-31T10:31:32.688Z,101247.28
2019-01-31T10:33:04.257Z,101247.52
2019-01-31T10:34:18.068Z,101250.91
2019-01-31T10:35:34.597Z,101249.58
2019-01-31T10:36:45.306Z,101252.09
2019-01-31T10:37:50.022Z,101251.98
2019-01-31T10:39:12.826Z,101252.96
2019-01-31T10:40:29.541Z,101254.50
2019-01-31T10:41:58.797Z,101254.39
2019-01-31T10:43:21.887Z,101255.72
2019-01-31T10:44:32.053Z,101255.10
2019-01-31T10:45:36.895Z,101250.23
2019-01-31T10:46:44.510Z,101246.10
2019-01-31T10:48:07.064Z,101250.11
2019-01-31T10:49:17.785Z,101256.64
2019-01-31T10:50:25.210Z,101254.83
2019-01-31T10:51:35.630Z,101258.07
2019-01-31T10:52:57.315Z,101255.91
2019-01-31T10:54:04.827Z,101257.59
2019-01-31T10:55:24.884Z,101255.28
2019-01-31T10:57:03.336Z,101259.64
2019-01-31T10:58:11.056Z,101258.31
2019-01-31T10:59:37.168Z,101253.59
2019-01-31T11:00:51.188Z,101258.81
2019-01-31T11:01:59.212Z,101251.03
2019-01-31T11:03:15.720Z,101251.53
2019-01-31T11:04:23.485Z,101258.58
2019-01-31T11:05:37.228Z,101256.38
2019-01-31T11:07:10.545Z,101257.23
2019-01-31T11:08:37.996Z,101253.23
2019-01-31T11:09:48.256Z,101260.39
2019-01-31T11:11:01.813Z,101259.67
2019-01-31T11:12:12.188Z,101259.32
2019-01-31T11:13:52.084Z,101261.52
2019-01-31T11:15:16.436Z,101257.15
2019-01-31T11:16:36.286Z,101257.51
2019-01-31T11:17:59.134Z,101255.66
2019-01-31T11:19:12.415Z,101256.17
2019-01-31T11:20:19.525Z,101260.66
2019-01-31T11:21:48.887Z,101264.66
2019-01-31T11:23:08.886Z,101263.06
2019-01-31T11:24:38.088Z,101264.55
2019-01-31T11:26:00.599Z,101263.56
2019-01-31T11:27:08.044Z,101259.67
2019-01-31T11:28:19.246Z,101255.31
2019-01-31T11:29:33.172Z,101259.83
2019-01-31T11:30:53.438Z,101261.16
2019-01-31T11:32:16.476Z,101259.32
2019-01-31T11:33:30.119Z,101261.16
2019-01-31T11:34:40.428Z,101262.14
2019-01-31T11:35:48.165Z,101259.47
2019-01-31T11:37:01.985Z,101262.50
2019-01-31T11:38:06.709Z,101270.52
2019-01-31T11:39:27.023Z,101265.65
2019-01-31T11:40:47.127Z,101266.52
2019-01-31T11:42:10.124Z,101261.02
2019-01-31T11:43:14.844Z,101265.02
2019-01-31T11:44:19.559Z,101264.05
2019-01-31T11:45:45.782Z,101258.70
2019-01-31T11:46:56.560Z,101254.69
2019-01-31T11:48:10.517Z,101258.22
2019-01-31T11:49:18.192Z,101260.39
2019-01-31T11:50:46.011Z,101263.56
2019-01-31T11:51:59.238Z,101262.59
2019-01-31T11:53:06.950Z,101262.59
2019-01-31T11:54:17.694Z,101259.91
2019-01-31T11:55:28.419Z,101261.25
2019-01-31T11:56:33.132Z,101255.91
2019-01-31T11:58:07.000Z,101258.94
2019-01-31T11:59:08.116Z,101262.44
2019-01-31T12:00:12.833Z,101257.59
2019-01-31T12:01:14.044Z,101256.26
2019-01-31T12:02:15.159Z,101263.30
2019-01-31T12:03:16.421Z,101267.67
2019-01-31T12:04:17.628Z,101262.67
2019-01-31T12:05:18.736Z,101262.20
2019-01-31T12:06:19.952Z,101255.01
2019-01-31T12:07:21.068Z,101261.22
2019-01-31T12:08:22.304Z,101263.90
2019-01-31T12:09:23.483Z,101268.27
2019-01-31T12:10:24.843Z,101262.41
2019-01-31T12:11:26.444Z,101265.44
2019-01-31T12:12:27.562Z,101267.13
2019-01-31T12:13:28.697Z,101268.00
2019-01-31T12:14:29.812Z,101268.83
2019-01-31T12:15:31.032Z,101268.70
2019-01-31T12:16:32.342Z,101273.55
2019-01-31T12:17:33.457Z,101266.87
2019-01-31T12:18:34.798Z,101272.22
2019-01-31T12:19:36.033Z,101269.06
2019-01-31T12:20:37.145Z,101267.73
2019-01-31T12:21:38.360Z,101264.91
2019-01-31T12:22:39.681Z,101272.45
2019-01-31T12:23:41.404Z,101269.27
2019-01-31T12:24:42.526Z,101276.31
2019-01-31T12:25:43.746Z,101273.64
2019-01-31T12:26:45.056Z,101270.48
2019-01-31T12:27:46.271Z,101275.33
2019-01-31T12:28:47.398Z,101275.33
2019-01-31T12:29:48.508Z,101273.52
2019-01-31T12:30:49.619Z,101275.57
2019-01-31T12:31:50.828Z,101280.92
2019-01-31T12:32:52.041Z,101274.70
2019-01-31T12:33:53.164Z,101279.59
2019-01-31T12:34:54.284Z,101283.95
2019-01-31T12:35:55.399Z,101281.75
2019-01-31T12:36:56.516Z,101281.75
2019-01-31T12:37:57.628Z,101283.09
2019-01-31T12:38:58.776Z,101283.95
2019-01-31T12:39:59.996Z,101282.26
2019-01-31T12:41:01.203Z,101285.41
2019-01-31T12:42:02.716Z,101283.45
2019-01-31T12:43:03.926Z,101290.13
2019-01-31T12:44:05.512Z,101283.09
2019-01-31T12:45:10.138Z,101282.11
2019-01-31T12:46:11.258Z,101285.77
2019-01-31T12:47:12.370Z,101280.77
2019-01-31T12:48:13.581Z,101281.63
2019-01-31T12:49:14.706Z,101286.98
2019-01-31T12:50:18.486Z,101283.95
2019-01-31T12:51:19.636Z,101286.62
2019-01-31T12:52:20.851Z,101283.95
2019-01-31T12:53:22.285Z,101292.45
2019-01-31T12:54:23.439Z,101287.61
2019-01-31T12:55:24.545Z,101287.61
2019-01-31T12:56:25.661Z,101289.78
2019-01-31T12:57:26.777Z,101284.42
2019-01-31T12:58:33.558Z,101288.95